createdAt,value
2022-09-23T00:00:27.125Z,5.38
2022-09-23T00:01:27.250Z,5.43
2022-09-23T00:02:27.134Z,5.43
2022-09-23T00:03:27.134Z,5.44
2022-09-23T00:04:27.103Z,5.47
2022-09-23T00:05:27.103Z,5.44
2022-09-23T00:06:27.080Z,5.36
2022-09-23T00:07:27.078Z,5.44
2022-09-23T00:08:27.098Z,5.32
2022-09-23T00:09:27.058Z,5.39
2022-09-23T00:10:27.054Z,5.25
2022-09-23T00:11:27.042Z,5.35
2022-09-23T00:12:27.037Z,5.41
2022-09-23T00:13:27.077Z,5.46
2022-09-23T00:14:27.020Z,5.35
2022-09-23T00:15:27.015Z,5.39
2022-09-23T00:16:27.060Z,5.32
2022-09-23T00:17:26.996Z,5.43
2022-09-23T00:18:27.009Z,5.43
2022-09-23T00:19:26.977Z,5.29
2022-09-23T00:20:26.968Z,5.35
2022-09-23T00:21:26.971Z,5.41
2022-09-23T00:22:26.957Z,5.41
2022-09-23T00:23:26.973Z,5.26
2022-09-23T00:24:26.940Z,5.30
2022-09-23T00:25:26.935Z,5.29
2022-09-23T00:26:26.923Z,5.25
2022-09-23T00:27:26.923Z,5.32
2022-09-23T00:28:26.945Z,5.32
2022-09-23T00:29:26.902Z,5.33
2022-09-23T00:30:26.934Z,5.43
2022-09-23T00:31:26.892Z,5.38
2022-09-23T00:32:26.880Z,5.41
2022-09-23T00:33:26.909Z,5.35
2022-09-23T00:34:26.866Z,5.18
2022-09-23T00:35:26.864Z,5.08
2022-09-23T00:36:26.853Z,5.17
2022-09-23T00:37:26.853Z,5.23
2022-09-23T00:38:26.835Z,5.20
2022-09-23T00:39:26.856Z,5.20
2022-09-23T00:40:26.883Z,5.25
2022-09-23T00:41:26.818Z,5.21
2022-09-23T00:42:26.813Z,5.30
2022-09-23T00:43:26.799Z,5.23
2022-09-23T00:44:26.820Z,5.20
2022-09-23T00:45:26.780Z,5.17
2022-09-23T00:46:26.833Z,5.10
2022-09-23T00:47:26.768Z,5.14
2022-09-23T00:48:26.760Z,5.23
2022-09-23T00:49:26.783Z,5.21
2022-09-23T00:50:26.746Z,5.26
2022-09-23T00:51:26.743Z,5.23
2022-09-23T00:52:26.741Z,5.23
2022-09-23T00:53:26.748Z,5.21
2022-09-23T00:54:26.747Z,5.15
2022-09-23T00:55:26.718Z,5.11
2022-09-23T00:56:26.708Z,5.04
2022-09-23T00:57:26.698Z,5.05
2022-09-23T00:58:26.694Z,5.10
2022-09-23T00:59:26.712Z,5.00
2022-09-23T01:00:26.681Z,5.07
2022-09-23T01:01:26.708Z,5.07
2022-09-23T01:02:26.719Z,5.08
2022-09-23T01:03:26.657Z,4.97
2022-09-23T01:04:26.676Z,4.87
2022-09-23T01:05:26.642Z,4.89
2022-09-23T01:06:26.631Z,4.84
2022-09-23T01:07:26.627Z,4.93
2022-09-23T01:08:26.626Z,5.04
2022-09-23T01:09:26.634Z,5.07
2022-09-23T01:10:26.609Z,5.10
2022-09-23T01:11:26.600Z,5.07
2022-09-23T01:12:26.620Z,5.11
2022-09-23T01:13:26.578Z,5.02
2022-09-23T01:14:26.602Z,5.10
2022-09-23T01:15:26.567Z,5.08
2022-09-23T01:16:26.619Z,5.08
2022-09-23T01:17:26.559Z,5.10
2022-09-23T01:18:26.545Z,5.11
2022-09-23T01:19:26.568Z,5.12
2022-09-23T01:20:26.524Z,5.11
2022-09-23T01:21:26.525Z,5.11
2022-09-23T01:22:26.518Z,5.04
2022-09-23T01:23:26.511Z,5.17
2022-09-23T01:24:26.531Z,5.10
2022-09-23T01:25:26.500Z,5.08
2022-09-23T01:26:26.490Z,5.07
2022-09-23T01:27:26.481Z,5.10
2022-09-23T01:28:26.479Z,5.08
2022-09-23T01:29:26.500Z,5.14
2022-09-23T01:30:26.519Z,5.05
2022-09-23T01:31:26.457Z,5.04
2022-09-23T01:32:26.450Z,5.08
2022-09-23T01:33:26.441Z,5.07
2022-09-23T01:34:26.465Z,5.00
2022-09-23T01:35:26.430Z,4.96
2022-09-23T01:36:26.454Z,4.97
2022-09-23T01:37:26.411Z,4.94
2022-09-23T01:38:26.401Z,5.00
2022-09-23T01:39:26.448Z,4.92
2022-09-23T01:40:26.452Z,4.99
2022-09-23T01:41:26.419Z,4.87
2022-09-23T01:42:26.384Z,4.93
2022-09-23T01:43:26.382Z,4.90
2022-09-23T01:44:26.355Z,4.94
2022-09-23T01:45:26.370Z,4.92
2022-09-23T01:46:26.345Z,4.87
2022-09-23T01:47:26.326Z,4.74
2022-09-23T01:48:26.354Z,4.84
2022-09-23T01:49:26.313Z,4.71
2022-09-23T01:50:26.334Z,4.70
2022-09-23T01:51:26.302Z,4.75
2022-09-23T01:52:26.288Z,4.70
2022-09-23T01:53:26.287Z,4.74
2022-09-23T01:54:26.275Z,4.73
2022-09-23T01:55:26.294Z,4.75
2022-09-23T01:56:26.259Z,4.86
2022-09-23T01:57:26.249Z,4.78
2022-09-23T01:58:26.248Z,4.78
2022-09-23T01:59:26.252Z,4.71
2022-09-23T02:00:26.258Z,4.67
2022-09-23T02:01:26.288Z,4.73
2022-09-23T02:02:26.233Z,4.70
2022-09-23T02:03:26.203Z,4.73
2022-09-23T02:04:26.199Z,4.62
2022-09-23T02:05:26.221Z,4.71
2022-09-23T02:06:26.184Z,4.68
2022-09-23T02:07:26.174Z,4.66
2022-09-23T02:08:26.172Z,4.77
2022-09-23T02:09:26.163Z,4.78
2022-09-23T02:10:26.181Z,4.80
2022-09-23T02:11:26.149Z,4.86
2022-09-23T02:12:26.142Z,4.90
2022-09-23T02:13:26.128Z,4.89
2022-09-23T02:14:26.125Z,4.78
2022-09-23T02:15:26.141Z,4.90
2022-09-23T02:16:26.183Z,4.89
2022-09-23T02:17:26.103Z,4.90
2022-09-23T02:18:26.098Z,4.92
2022-09-23T02:19:26.083Z,4.89
2022-09-23T02:20:26.101Z,4.89
2022-09-23T02:21:26.065Z,4.94
2022-09-23T02:22:26.059Z,4.94
2022-09-23T02:23:26.054Z,4.87
2022-09-23T02:24:26.066Z,4.84
2022-09-23T02:25:26.065Z,4.86
2022-09-23T02:26:26.035Z,4.86
2022-09-23T02:27:26.020Z,4.89
2022-09-23T02:28:26.012Z,4.89
2022-09-23T02:29:26.004Z,4.82
2022-09-23T02:30:26.017Z,4.82
2022-09-23T02:31:26.125Z,4.80
2022-09-23T02:32:25.975Z,4.86
2022-09-23T02:33:25.970Z,4.84
2022-09-23T02:34:25.963Z,4.75
2022-09-23T02:35:26.005Z,4.80
2022-09-23T02:36:25.950Z,4.80
2022-09-23T02:37:25.940Z,4.78
2022-09-23T02:38:25.940Z,4.73
2022-09-23T02:39:25.918Z,4.66
2022-09-23T02:40:26.997Z,4.66
2022-09-23T02:41:25.913Z,4.71
2022-09-23T02:42:25.901Z,4.58
2022-09-23T02:43:25.895Z,4.48
2022-09-23T02:44:25.880Z,4.49
2022-09-23T02:45:25.910Z,4.48
2022-09-23T02:46:25.863Z,4.53
2022-09-23T02:47:26.869Z,4.67
2022-09-23T02:48:25.859Z,4.55
2022-09-23T02:49:25.852Z,4.56
2022-09-23T02:50:25.844Z,4.53
2022-09-23T02:51:25.868Z,4.53
2022-09-23T02:52:25.828Z,4.50
2022-09-23T02:53:25.824Z,4.53
2022-09-23T02:54:25.817Z,4.59
2022-09-23T02:55:25.803Z,4.59
2022-09-23T02:56:25.826Z,4.60
2022-09-23T02:57:25.790Z,4.60
2022-09-23T02:58:25.785Z,4.68
2022-09-23T02:59:25.779Z,4.67
2022-09-23T03:00:25.772Z,4.62
2022-09-23T03:01:25.817Z,4.67
2022-09-23T03:02:25.794Z,4.71
2022-09-23T03:03:25.749Z,4.62
2022-09-23T03:04:25.742Z,4.56
2022-09-23T03:05:25.741Z,4.59
2022-09-23T03:06:25.753Z,4.62
2022-09-23T03:07:25.722Z,4.70
2022-09-23T03:08:25.727Z,4.67
2022-09-23T03:09:25.709Z,4.62
2022-09-23T03:10:25.695Z,4.67
2022-09-23T03:11:25.721Z,4.71
2022-09-23T03:12:25.683Z,4.73
2022-09-23T03:13:29.264Z,4.73
2022-09-23T03:14:26.694Z,4.66
2022-09-23T03:15:25.665Z,4.63
2022-09-23T03:16:25.749Z,4.59
2022-09-23T03:17:25.653Z,4.74
2022-09-23T03:18:25.644Z,4.67
2022-09-23T03:19:25.633Z,4.62
2022-09-23T03:20:25.622Z,4.67
2022-09-23T03:21:25.649Z,4.63
2022-09-23T03:22:25.610Z,4.67
2022-09-23T03:23:25.602Z,4.70
2022-09-23T03:24:25.602Z,4.75
2022-09-23T03:25:25.588Z,4.73
2022-09-23T03:26:25.610Z,4.66
2022-09-23T03:27:25.579Z,4.63
2022-09-23T03:28:25.567Z,4.71
2022-09-23T03:29:25.561Z,4.59
2022-09-23T03:30:25.557Z,4.60
2022-09-23T03:31:25.676Z,4.60
2022-09-23T03:32:25.543Z,4.55
2022-09-23T03:33:28.501Z,4.49
2022-09-23T03:34:26.525Z,4.59
2022-09-23T03:35:25.516Z,4.66
2022-09-23T03:36:25.539Z,4.59
2022-09-23T03:37:25.502Z,4.52
2022-09-23T03:38:25.494Z,4.60
2022-09-23T03:39:25.491Z,4.66
2022-09-23T03:40:25.522Z,4.63
2022-09-23T03:41:25.508Z,4.59
2022-09-23T03:42:25.467Z,4.55
2022-09-23T03:43:25.466Z,4.67
2022-09-23T03:44:25.453Z,4.60
2022-09-23T03:45:25.456Z,4.55
2022-09-23T03:46:25.465Z,4.56
2022-09-23T03:47:57.493Z,4.55
2022-09-23T03:48:25.428Z,4.62
2022-09-23T03:49:25.411Z,4.71
2022-09-23T03:50:25.398Z,4.67
2022-09-23T03:51:25.395Z,4.67
2022-09-23T03:52:25.414Z,4.68
2022-09-23T03:53:25.388Z,4.68
2022-09-23T03:54:25.375Z,4.70
2022-09-23T03:55:25.367Z,4.63
2022-09-23T03:56:25.400Z,4.63
2022-09-23T03:57:25.356Z,4.66
2022-09-23T03:58:25.346Z,4.71
2022-09-23T03:59:25.404Z,4.63
2022-09-23T04:00:25.327Z,4.62
2022-09-23T04:01:25.419Z,4.66
2022-09-23T04:02:25.386Z,4.66
2022-09-23T04:03:25.316Z,4.60
2022-09-23T04:04:25.308Z,4.62
2022-09-23T04:05:25.293Z,4.66
2022-09-23T04:06:25.339Z,4.66
2022-09-23T04:07:25.290Z,4.63
2022-09-23T04:08:25.269Z,4.62
2022-09-23T04:09:26.282Z,4.63
2022-09-23T04:10:25.281Z,4.60
2022-09-23T04:11:25.248Z,4.56
2022-09-23T04:12:25.265Z,4.62
2022-09-23T04:13:25.264Z,4.58
2022-09-23T04:14:25.262Z,4.62
2022-09-23T04:15:25.236Z,4.71
2022-09-23T04:16:25.248Z,4.68
2022-09-23T04:17:25.229Z,4.70
2022-09-23T04:18:25.196Z,4.55
2022-09-23T04:19:25.187Z,4.56
2022-09-23T04:20:25.197Z,4.59
2022-09-23T04:21:25.195Z,4.67
2022-09-23T04:22:25.200Z,4.52
2022-09-23T04:23:25.157Z,4.58
2022-09-23T04:24:25.147Z,4.56
2022-09-23T04:25:25.152Z,4.60
2022-09-23T04:26:25.141Z,4.58
2022-09-23T04:27:25.159Z,4.62
2022-09-23T04:28:25.122Z,4.58
2022-09-23T04:29:25.122Z,4.67
2022-09-23T04:30:25.117Z,4.56
2022-09-23T04:31:25.126Z,4.55
2022-09-23T04:32:25.149Z,4.68
2022-09-23T04:33:25.096Z,4.60
2022-09-23T04:34:25.076Z,4.68
2022-09-23T04:35:25.081Z,4.66
2022-09-23T04:36:25.069Z,4.60
2022-09-23T04:37:25.080Z,4.62
2022-09-23T04:38:25.083Z,4.62
2022-09-23T04:39:25.040Z,4.45
2022-09-23T04:40:25.069Z,4.53
2022-09-23T04:41:25.039Z,4.53
2022-09-23T04:42:25.058Z,4.49
2022-09-23T04:43:25.006Z,4.56
2022-09-23T04:44:24.987Z,4.50
2022-09-23T04:45:25.990Z,4.49
2022-09-23T04:46:25.076Z,4.52
2022-09-23T04:47:25.007Z,4.56
2022-09-23T04:48:24.971Z,4.52
2022-09-23T04:49:24.970Z,4.37
2022-09-23T04:50:24.959Z,4.49
2022-09-23T04:51:24.952Z,4.42
2022-09-23T04:52:24.968Z,4.53
2022-09-23T04:53:24.940Z,4.40
2022-09-23T04:54:24.950Z,4.45
2022-09-23T04:55:24.918Z,4.49
2022-09-23T04:56:24.914Z,4.45
2022-09-23T04:57:24.926Z,4.60
2022-09-23T04:58:24.895Z,4.55
2022-09-23T04:59:24.896Z,4.55
2022-09-23T05:00:24.884Z,4.53
2022-09-23T05:01:24.973Z,4.55
2022-09-23T05:02:24.965Z,4.48
2022-09-23T05:03:24.861Z,4.48
2022-09-23T05:04:24.849Z,4.45
2022-09-23T05:05:24.852Z,4.52
2022-09-23T05:06:24.833Z,4.53
2022-09-23T05:07:24.866Z,4.49
2022-09-23T05:08:24.822Z,4.42
2022-09-23T05:09:24.823Z,4.56
2022-09-23T05:10:24.807Z,4.37
2022-09-23T05:11:24.795Z,4.48
2022-09-23T05:12:24.815Z,4.35
2022-09-23T05:13:24.792Z,4.34
2022-09-23T05:14:24.786Z,4.32
2022-09-23T05:15:24.766Z,4.30
2022-09-23T05:16:24.847Z,4.35
2022-09-23T05:17:24.786Z,4.32
2022-09-23T05:18:24.743Z,4.37
2022-09-23T05:19:24.731Z,4.35
2022-09-23T05:20:24.763Z,4.49
2022-09-23T05:21:24.730Z,4.50
2022-09-23T05:22:24.738Z,4.53
2022-09-23T05:23:24.713Z,4.52
2022-09-23T05:24:24.696Z,4.55
2022-09-23T05:25:24.693Z,4.55
2022-09-23T05:26:24.686Z,4.52
2022-09-23T05:27:24.705Z,4.50
2022-09-23T05:28:24.670Z,4.50
2022-09-23T05:29:24.661Z,4.50
2022-09-23T05:30:24.664Z,4.45
2022-09-23T05:31:24.690Z,4.44
2022-09-23T05:32:24.687Z,4.56
2022-09-23T05:33:24.634Z,4.59
2022-09-23T05:34:24.628Z,4.52
2022-09-23T05:35:24.616Z,4.56
2022-09-23T05:36:24.617Z,4.55
2022-09-23T05:37:24.630Z,4.52
2022-09-23T05:38:24.604Z,4.63
2022-09-23T05:39:24.600Z,4.55
2022-09-23T05:40:24.667Z,4.63
2022-09-23T05:41:24.578Z,4.60
2022-09-23T05:42:24.606Z,4.71
2022-09-23T05:43:24.576Z,4.74
2022-09-23T05:44:24.572Z,4.66
2022-09-23T05:45:26.786Z,4.66
2022-09-23T05:46:24.571Z,4.73
2022-09-23T05:47:24.569Z,4.74
2022-09-23T05:48:24.683Z,4.73
2022-09-23T05:49:42.555Z,4.67
2022-09-23T05:50:26.507Z,4.70
2022-09-23T05:51:27.617Z,4.73
2022-09-23T05:52:26.527Z,4.75
2022-09-23T05:53:24.487Z,4.68
2022-09-23T05:54:24.482Z,4.75
2022-09-23T05:55:24.474Z,4.75
2022-09-23T05:56:24.468Z,4.75
2022-09-23T05:57:24.506Z,4.87
2022-09-23T05:58:24.455Z,4.87
2022-09-23T05:59:24.459Z,4.93
2022-09-23T06:00:24.435Z,5.00
2022-09-23T06:01:24.466Z,4.99
2022-09-23T06:02:24.476Z,4.94
2022-09-23T06:03:24.540Z,4.97
2022-09-23T06:04:24.422Z,4.97
2022-09-23T06:05:24.406Z,5.04
2022-09-23T06:06:24.403Z,5.00
2022-09-23T06:07:24.415Z,5.05
2022-09-23T06:08:24.392Z,5.07
2022-09-23T06:09:24.374Z,5.02
2022-09-23T06:10:24.376Z,5.07
2022-09-23T06:11:24.361Z,5.12
2022-09-23T06:12:24.405Z,5.20
2022-09-23T06:13:24.365Z,5.15
2022-09-23T06:14:24.335Z,5.23
2022-09-23T06:15:24.335Z,5.18
2022-09-23T06:16:24.386Z,5.25
2022-09-23T06:17:24.366Z,5.35
2022-09-23T06:18:24.314Z,5.35
2022-09-23T06:19:24.300Z,5.30
2022-09-23T06:20:24.308Z,5.36
2022-09-23T06:21:24.327Z,5.25
2022-09-23T06:22:24.307Z,5.35
2022-09-23T06:23:26.442Z,5.35
2022-09-23T06:24:30.815Z,5.39
2022-09-23T06:25:26.255Z,5.43
2022-09-23T06:26:24.254Z,5.30
2022-09-23T06:27:24.273Z,5.41
2022-09-23T06:28:24.243Z,5.36
2022-09-23T06:29:24.230Z,5.41
2022-09-23T06:30:24.237Z,5.39
2022-09-23T06:31:24.257Z,5.41
2022-09-23T06:32:24.206Z,5.33
2022-09-23T06:33:34.995Z,5.46
2022-09-23T06:34:26.185Z,5.39
2022-09-23T06:35:27.388Z,5.39
2022-09-23T06:36:40.800Z,5.48
2022-09-23T06:37:26.165Z,5.59
2022-09-23T06:38:24.186Z,5.57
2022-09-23T06:39:24.152Z,5.48
2022-09-23T06:40:24.186Z,5.54
2022-09-23T06:41:24.128Z,5.54
2022-09-23T06:42:24.145Z,5.47
2022-09-23T06:43:24.163Z,5.64
2022-09-23T06:44:24.123Z,5.69
2022-09-23T06:45:24.114Z,5.71
2022-09-23T06:46:24.164Z,5.73
2022-09-23T06:47:24.085Z,5.87
2022-09-23T06:48:24.103Z,5.91
2022-09-23T06:49:24.078Z,5.90
2022-09-23T06:50:24.094Z,5.84
2022-09-23T06:51:24.058Z,5.94
2022-09-23T06:52:24.064Z,5.93
2022-09-23T06:53:24.076Z,5.83
2022-09-23T06:54:24.043Z,5.87
2022-09-23T06:55:24.030Z,5.98
2022-09-23T06:56:24.885Z,5.99
2022-09-23T06:57:24.019Z,6.09
2022-09-23T06:58:24.040Z,6.11
2022-09-23T06:59:24.002Z,6.28
2022-09-23T07:00:24.002Z,6.31
2022-09-23T07:01:24.132Z,6.46
2022-09-23T07:02:24.121Z,6.42
2022-09-23T07:03:24.939Z,6.27
2022-09-23T07:04:28.631Z,6.27
2022-09-23T07:05:25.988Z,6.39
2022-09-23T07:06:23.996Z,6.60
2022-09-23T07:07:23.931Z,6.62
2022-09-23T07:08:23.957Z,6.72
2022-09-23T07:09:23.928Z,6.77
2022-09-23T07:10:23.911Z,6.88
2022-09-23T07:11:23.906Z,6.89
2022-09-23T07:12:23.898Z,7.10
2022-09-23T07:13:23.918Z,7.03
2022-09-23T07:14:23.893Z,7.06
2022-09-23T07:15:23.890Z,7.02
2022-09-23T07:16:23.969Z,7.03
2022-09-23T07:17:23.868Z,6.85
2022-09-23T07:18:23.896Z,6.81
2022-09-23T07:19:23.846Z,6.85
2022-09-23T07:20:23.920Z,6.97
2022-09-23T07:21:23.825Z,7.00
2022-09-23T07:22:23.821Z,7.21
2022-09-23T07:23:23.884Z,7.18
2022-09-23T07:24:23.845Z,7.31
2022-09-23T07:25:23.805Z,7.29
2022-09-23T07:26:23.791Z,7.35
2022-09-23T07:27:23.792Z,7.33
2022-09-23T07:28:23.798Z,7.24
2022-09-23T07:29:23.780Z,7.21
2022-09-23T07:30:25.573Z,7.29
2022-09-23T07:31:37.689Z,7.36
2022-09-23T07:32:25.776Z,7.36
2022-09-23T07:33:31.852Z,7.29
2022-09-23T07:34:25.732Z,7.35
2022-09-23T07:35:23.730Z,7.32
2022-09-23T07:36:23.718Z,7.38
2022-09-23T07:37:23.706Z,7.42
2022-09-23T07:38:23.740Z,7.36
2022-09-23T07:39:23.704Z,7.47
2022-09-23T07:40:23.801Z,7.50
2022-09-23T07:41:23.687Z,7.54
2022-09-23T07:42:23.678Z,7.58
2022-09-23T07:43:23.798Z,7.66
2022-09-23T07:44:23.770Z,7.57
2022-09-23T07:45:23.686Z,7.72
2022-09-23T07:46:23.804Z,7.63
2022-09-23T07:47:23.632Z,7.72
2022-09-23T07:48:23.658Z,7.82
2022-09-23T07:49:23.632Z,7.79
2022-09-23T07:50:23.730Z,7.83
2022-09-23T07:51:23.610Z,8.00
2022-09-23T07:52:23.614Z,8.06
2022-09-23T07:53:23.616Z,8.09
2022-09-23T07:54:23.586Z,7.97
2022-09-23T07:55:23.580Z,8.12
2022-09-23T07:56:23.580Z,8.15
2022-09-23T07:57:23.565Z,8.20
2022-09-23T07:58:23.579Z,8.13
2022-09-23T07:59:23.634Z,8.26
2022-09-23T08:00:23.589Z,8.31
2022-09-23T08:01:23.575Z,8.27
2022-09-23T08:02:23.589Z,8.18
2022-09-23T08:03:23.545Z,8.13
2022-09-23T08:04:23.523Z,8.26
2022-09-23T08:05:23.503Z,8.34
2022-09-23T08:06:23.503Z,8.36
2022-09-23T08:07:23.509Z,8.37
2022-09-23T08:08:23.503Z,8.38
2022-09-23T08:09:23.479Z,8.53
2022-09-23T08:10:23.467Z,8.56
2022-09-23T08:11:23.462Z,8.60
2022-09-23T08:12:23.448Z,8.69
2022-09-23T08:13:23.542Z,8.73
2022-09-23T08:14:23.446Z,8.66
2022-09-23T08:15:23.422Z,8.61
2022-09-23T08:16:23.458Z,8.81
2022-09-23T08:17:23.423Z,8.76
2022-09-23T08:18:23.430Z,8.85
2022-09-23T08:19:23.398Z,9.00
2022-09-23T08:20:23.386Z,8.91
2022-09-23T08:21:23.384Z,8.87
2022-09-23T08:22:23.384Z,8.71
2022-09-23T08:23:23.416Z,8.74
2022-09-23T08:24:23.412Z,8.92
2022-09-23T08:25:23.408Z,9.06
2022-09-23T08:26:23.357Z,9.10
2022-09-23T08:27:23.344Z,9.18
2022-09-23T08:28:23.362Z,9.19
2022-09-23T08:29:23.330Z,9.28
2022-09-23T08:30:23.319Z,9.40
2022-09-23T08:31:23.423Z,9.46
2022-09-23T08:32:23.317Z,9.61
2022-09-23T08:33:23.876Z,9.73
2022-09-23T08:34:24.288Z,9.80
2022-09-23T08:35:23.284Z,9.99
2022-09-23T08:36:23.281Z,10.15
2022-09-23T08:37:23.268Z,10.26
2022-09-23T08:38:23.289Z,10.40
2022-09-23T08:39:23.246Z,10.49
2022-09-23T08:40:23.389Z,10.59
2022-09-23T08:41:23.230Z,10.57
2022-09-23T08:42:23.231Z,10.78
2022-09-23T08:43:23.244Z,10.94
2022-09-23T08:44:23.205Z,11.04
2022-09-23T08:45:23.198Z,11.12
2022-09-23T08:46:23.238Z,11.17
2022-09-23T08:47:23.184Z,11.08
2022-09-23T08:48:23.206Z,11.18
2022-09-23T08:49:23.202Z,11.04
2022-09-23T08:50:23.164Z,10.79
2022-09-23T08:51:23.160Z,10.99
2022-09-23T08:52:23.144Z,11.12
2022-09-23T08:53:23.174Z,11.33
2022-09-23T08:54:23.132Z,11.27
2022-09-23T08:55:23.126Z,11.19
2022-09-23T08:56:23.125Z,11.22
2022-09-23T08:57:23.108Z,11.27
2022-09-23T08:58:25.555Z,11.25
2022-09-23T08:59:24.101Z,11.23
2022-09-23T09:00:23.089Z,11.07
2022-09-23T09:01:23.115Z,11.27
2022-09-23T09:02:23.093Z,11.11
2022-09-23T09:03:23.859Z,11.00
2022-09-23T09:04:23.092Z,11.19
2022-09-23T09:05:23.059Z,11.55
2022-09-23T09:06:23.057Z,11.77
2022-09-23T09:07:38.621Z,12.03
2022-09-23T09:08:25.061Z,12.25
2022-09-23T09:09:23.018Z,12.40
2022-09-23T09:10:23.014Z,12.29
2022-09-23T09:11:23.011Z,12.27
2022-09-23T09:12:22.998Z,12.35
2022-09-23T09:13:22.985Z,12.22
2022-09-23T09:14:23.021Z,12.00
2022-09-23T09:15:24.841Z,11.94
2022-09-23T09:16:41.823Z,12.04
2022-09-23T09:17:24.962Z,12.09
2022-09-23T09:18:22.949Z,12.21
2022-09-23T09:19:22.977Z,12.37
2022-09-23T09:20:22.933Z,12.47
2022-09-23T09:21:22.940Z,12.75
2022-09-23T09:22:22.930Z,12.42
2022-09-23T09:23:22.921Z,12.75
2022-09-23T09:24:22.946Z,12.90
2022-09-23T09:25:22.907Z,13.04
2022-09-23T09:26:22.890Z,12.86
2022-09-23T09:27:22.887Z,12.95
2022-09-23T09:28:22.875Z,13.12
2022-09-23T09:29:35.000Z,13.22
2022-09-23T09:30:24.868Z,13.38
2022-09-23T09:31:22.892Z,13.49
2022-09-23T09:32:22.858Z,13.75
2022-09-23T09:33:22.863Z,13.83
2022-09-23T09:34:22.865Z,13.57
2022-09-23T09:35:22.860Z,13.39
2022-09-23T09:36:22.821Z,13.47
2022-09-23T09:37:22.815Z,13.68
2022-09-23T09:38:22.805Z,13.90
2022-09-23T09:39:26.137Z,14.05
2022-09-23T09:40:23.823Z,14.10
2022-09-23T09:41:22.860Z,14.03
2022-09-23T09:42:22.777Z,13.95
2022-09-23T09:43:22.768Z,13.99
2022-09-23T09:44:22.784Z,14.05
2022-09-23T09:45:22.755Z,14.22
2022-09-23T09:46:22.828Z,14.33
2022-09-23T09:47:32.290Z,14.40
2022-09-23T09:48:22.726Z,14.53
2022-09-23T09:49:22.752Z,14.48
2022-09-23T09:50:22.719Z,14.58
2022-09-23T09:51:22.708Z,14.47
2022-09-23T09:52:22.701Z,14.40
2022-09-23T09:53:22.646Z,14.40
2022-09-23T09:54:22.661Z,14.41
2022-09-23T09:55:22.625Z,14.65
2022-09-23T09:56:22.613Z,14.65
2022-09-23T09:57:22.605Z,14.72
2022-09-23T09:58:22.599Z,14.82
2022-09-23T09:59:22.616Z,14.79
2022-09-23T10:00:22.664Z,14.94
2022-09-23T10:01:22.614Z,15.15
2022-09-23T10:02:22.567Z,15.42
2022-09-23T10:03:22.559Z,15.65
2022-09-23T10:04:22.627Z,15.76
2022-09-23T10:05:24.693Z,15.90
2022-09-23T10:06:23.532Z,16.05
2022-09-23T10:07:22.574Z,16.23
2022-09-23T10:08:22.519Z,16.39
2022-09-23T10:09:23.374Z,16.33
2022-09-23T10:10:32.467Z,16.28
2022-09-23T10:11:24.491Z,16.35
2022-09-23T10:12:22.505Z,16.47
2022-09-23T10:13:22.482Z,16.60
2022-09-23T10:14:22.510Z,16.61
2022-09-23T10:15:22.467Z,16.57
2022-09-23T10:16:22.547Z,16.74
2022-09-23T10:17:22.447Z,16.69
2022-09-23T10:18:22.445Z,16.72
2022-09-23T10:19:22.450Z,16.75
2022-09-23T10:20:22.418Z,17.01
2022-09-23T10:21:27.488Z,17.27
2022-09-23T10:22:24.406Z,17.23
2022-09-23T10:23:22.431Z,17.39
2022-09-23T10:24:22.422Z,17.48
2022-09-23T10:25:22.392Z,17.57
2022-09-23T10:26:22.380Z,17.54
2022-09-23T10:27:22.375Z,17.41
2022-09-23T10:28:22.362Z,17.54
2022-09-23T10:29:22.375Z,17.52
2022-09-23T10:30:22.349Z,17.64
2022-09-23T10:31:22.333Z,17.71
2022-09-23T10:32:22.330Z,17.80
2022-09-23T10:33:22.319Z,17.85
2022-09-23T10:34:22.310Z,17.80
2022-09-23T10:35:22.334Z,17.78
2022-09-23T10:36:22.302Z,18.00
2022-09-23T10:37:22.289Z,18.01
2022-09-23T10:38:22.280Z,18.05
2022-09-23T10:39:22.279Z,18.28
2022-09-23T10:40:22.341Z,18.37
2022-09-23T10:41:22.290Z,18.40
2022-09-23T10:42:22.267Z,18.38
2022-09-23T10:43:22.249Z,18.45
2022-09-23T10:44:22.246Z,18.16
2022-09-23T10:45:22.254Z,18.18
2022-09-23T10:46:23.289Z,18.20
2022-09-23T10:47:22.229Z,18.23
2022-09-23T10:48:22.219Z,18.26
2022-09-23T10:49:22.208Z,18.15
2022-09-23T10:50:22.227Z,18.23
2022-09-23T10:51:26.128Z,18.07
2022-09-23T10:52:23.184Z,18.18
2022-09-23T10:53:22.175Z,18.38
2022-09-23T10:54:22.171Z,18.38
2022-09-23T10:55:22.187Z,18.40
2022-09-23T10:56:22.200Z,18.44
2022-09-23T10:57:22.146Z,18.45
2022-09-23T10:58:22.144Z,18.40
2022-09-23T10:59:22.884Z,18.49
2022-09-23T11:00:22.166Z,18.52
2022-09-23T11:01:22.214Z,18.62
2022-09-23T11:02:22.171Z,18.71
2022-09-23T11:03:22.128Z,18.53
2022-09-23T11:04:22.179Z,18.63
2022-09-23T11:05:22.126Z,18.62
2022-09-23T11:06:22.082Z,18.65
2022-09-23T11:07:22.076Z,18.44
2022-09-23T11:08:22.076Z,18.34
2022-09-23T11:09:22.063Z,18.38
2022-09-23T11:10:42.228Z,18.56
2022-09-23T11:11:24.047Z,18.65
2022-09-23T11:12:22.038Z,18.73
2022-09-23T11:13:22.027Z,18.93
2022-09-23T11:14:22.027Z,18.95
2022-09-23T11:15:22.042Z,18.93
2022-09-23T11:16:22.056Z,18.84
2022-09-23T11:17:21.998Z,18.56
2022-09-23T11:18:22.005Z,18.65
2022-09-23T11:19:21.983Z,18.60
2022-09-23T11:20:22.012Z,18.75
2022-09-23T11:21:21.972Z,18.77
2022-09-23T11:22:21.968Z,18.84
2022-09-23T11:23:21.960Z,18.84
2022-09-23T11:24:21.949Z,18.99
2022-09-23T11:25:21.967Z,18.98
2022-09-23T11:26:21.937Z,18.83
2022-09-23T11:27:21.930Z,18.90
2022-09-23T11:28:21.922Z,18.90
2022-09-23T11:29:21.934Z,18.93
2022-09-23T11:30:21.993Z,18.99
2022-09-23T11:31:21.959Z,18.90
2022-09-23T11:32:21.897Z,19.08
2022-09-23T11:33:21.884Z,19.19
2022-09-23T11:34:21.968Z,19.15
2022-09-23T11:35:22.905Z,18.99
2022-09-23T11:36:21.858Z,18.96
2022-09-23T11:37:21.857Z,19.04
2022-09-23T11:38:21.849Z,19.14
2022-09-23T11:39:21.847Z,19.21
2022-09-23T11:40:21.949Z,19.27
2022-09-23T11:41:21.847Z,19.27
2022-09-23T11:42:21.820Z,19.11
2022-09-23T11:43:21.814Z,19.09
2022-09-23T11:44:21.810Z,19.15
2022-09-23T11:45:21.794Z,19.39
2022-09-23T11:46:21.910Z,19.41
2022-09-23T11:47:21.784Z,19.45
2022-09-23T11:48:21.774Z,19.47
2022-09-23T11:49:21.766Z,19.37
2022-09-23T11:50:21.762Z,19.31
2022-09-23T11:51:21.779Z,19.00
2022-09-23T11:52:21.747Z,18.74
2022-09-23T11:53:21.745Z,18.65
2022-09-23T11:54:21.730Z,18.65
2022-09-23T11:55:23.195Z,18.81
2022-09-23T11:56:33.676Z,18.84
2022-09-23T11:57:23.715Z,18.89
2022-09-23T11:58:25.978Z,18.84
2022-09-23T11:59:35.037Z,18.98
2022-09-23T12:00:23.689Z,18.93
2022-09-23T12:01:31.924Z,18.92
2022-09-23T12:02:28.198Z,18.96
2022-09-23T12:03:29.758Z,18.92
2022-09-23T12:04:24.082Z,19.12
2022-09-23T12:05:21.861Z,19.09
2022-09-23T12:06:21.670Z,19.12
2022-09-23T12:07:21.646Z,19.12
2022-09-23T12:08:21.626Z,19.11
2022-09-23T12:09:35.755Z,19.08
2022-09-23T12:10:23.608Z,19.12
2022-09-23T12:11:21.624Z,19.27
2022-09-23T12:12:26.358Z,19.33
2022-09-23T12:13:23.586Z,19.19
2022-09-23T12:14:21.624Z,19.36
2022-09-23T12:15:21.570Z,19.18
2022-09-23T12:16:21.625Z,19.26
2022-09-23T12:17:21.564Z,19.47
2022-09-23T12:18:23.305Z,19.47
2022-09-23T12:19:22.544Z,19.31
2022-09-23T12:20:21.535Z,18.99
2022-09-23T12:21:45.782Z,18.90
2022-09-23T12:22:23.518Z,19.04
2022-09-23T12:23:21.545Z,19.09
2022-09-23T12:24:21.505Z,19.08
2022-09-23T12:25:21.492Z,19.00
2022-09-23T12:26:21.524Z,19.21
2022-09-23T12:27:21.476Z,19.02
2022-09-23T12:28:21.478Z,18.89
2022-09-23T12:29:21.520Z,18.84
2022-09-23T12:30:21.526Z,18.93
2022-09-23T12:31:21.478Z,18.95
2022-09-23T12:32:21.449Z,19.02
2022-09-23T12:33:21.437Z,18.89
2022-09-23T12:34:21.436Z,18.68
2022-09-23T12:35:21.423Z,18.60
2022-09-23T12:36:21.442Z,18.81
2022-09-23T12:37:21.405Z,18.90
2022-09-23T12:38:21.404Z,18.96
2022-09-23T12:39:21.400Z,18.92
2022-09-23T12:40:21.412Z,18.90
2022-09-23T12:41:21.417Z,18.89
2022-09-23T12:42:21.375Z,19.02
2022-09-23T12:43:21.372Z,19.09
2022-09-23T12:44:21.358Z,19.21
2022-09-23T12:45:21.350Z,19.39
2022-09-23T12:46:21.439Z,19.44
2022-09-23T12:47:21.325Z,19.58
2022-09-23T12:48:22.336Z,19.71
2022-09-23T12:49:21.322Z,19.79
2022-09-23T12:50:24.454Z,19.77
2022-09-23T12:51:22.333Z,19.69
2022-09-23T12:52:21.303Z,19.59
2022-09-23T12:53:21.317Z,19.67
2022-09-23T12:54:21.286Z,19.58
2022-09-23T12:55:21.277Z,19.40
2022-09-23T12:56:21.305Z,19.39
2022-09-23T12:57:21.275Z,18.98
2022-09-23T12:58:21.263Z,18.95
2022-09-23T12:59:21.272Z,18.95
2022-09-23T13:00:21.247Z,19.14
2022-09-23T13:01:21.391Z,19.12
2022-09-23T13:02:21.316Z,19.08
2022-09-23T13:03:21.219Z,19.08
2022-09-23T13:04:21.213Z,19.19
2022-09-23T13:05:21.201Z,19.18
2022-09-23T13:06:21.234Z,19.21
2022-09-23T13:07:21.196Z,19.16
2022-09-23T13:08:21.200Z,19.12
2022-09-23T13:09:21.163Z,18.96